Terminal Aerodrome Forecast
Issued by NWS Paducah, KY

Home | Current Version | Previous Version | Text Only | Print | Product List | Glossary On
Versions: 1 2 3 4 5 6 7 8 9 10 11 12 13 14 15 16 17 18 19
000
FTUS43 KPAH 271720
TAFEVV
TAF
KEVV 271720Z 2718/2818 26010KT P6SM OVC025
      TEMPO 2718/2722 26010G16KT SCT025 BKN035
     FM272300 23007KT P6SM BKN035
     FM280200 19003KT P6SM SCT040
     FM280800 13004KT P6SM SCT100 BKN250
     FM281400 15012G20KT P6SM SCT050 BKN100=

USA.gov is the U.S. government's official web portal to all federal, state and local government web resources and services.